createdAt,value
2018-05-15T00:01:23.603Z,4.83
2018-05-15T00:03:50.935Z,4.87
2018-05-15T00:06:18.218Z,4.83
2018-05-15T00:08:45.552Z,4.80
2018-05-15T00:11:12.806Z,4.40
2018-05-15T00:13:40.071Z,4.40
2018-05-15T00:16:07.403Z,4.80
2018-05-15T00:18:34.761Z,4.20
2018-05-15T00:21:02.037Z,4.50
2018-05-15T00:23:29.367Z,4.83
2018-05-15T00:25:56.624Z,4.70
2018-05-15T00:28:23.878Z,4.67
2018-05-15T00:30:51.151Z,4.13
2018-05-15T00:33:18.408Z,4.50
2018-05-15T00:35:45.678Z,4.80
2018-05-15T00:38:12.953Z,5.30
2018-05-15T00:40:40.238Z,4.87
2018-05-15T00:43:07.563Z,4.63
2018-05-15T00:45:34.790Z,4.97
2018-05-15T00:48:02.093Z,4.63
2018-05-15T00:50:29.353Z,4.83
2018-05-15T00:52:56.607Z,4.83
2018-05-15T00:55:42.594Z,5.10
2018-05-15T00:58:09.850Z,4.60
2018-05-15T01:00:37.123Z,5.70
2018-05-15T01:03:04.380Z,5.00
2018-05-15T01:05:31.648Z,5.10
2018-05-15T01:07:58.895Z,5.03
2018-05-15T01:10:26.174Z,5.17
2018-05-15T01:12:53.459Z,4.93
2018-05-15T01:15:20.709Z,5.87
2018-05-15T01:17:47.983Z,5.80
2018-05-15T01:20:15.244Z,5.53
2018-05-15T01:22:42.510Z,5.00
2018-05-15T01:25:09.772Z,4.93
2018-05-15T01:27:37.033Z,5.60
2018-05-15T01:30:04.305Z,5.93
2018-05-15T01:32:31.560Z,5.37
2018-05-15T01:34:58.833Z,5.33
2018-05-15T01:37:26.088Z,5.53
2018-05-15T01:39:53.381Z,5.90
2018-05-15T01:42:20.731Z,5.47
2018-05-15T01:44:48.086Z,6.27
2018-05-15T01:47:15.354Z,5.30
2018-05-15T01:49:42.627Z,5.80
2018-05-15T01:52:09.878Z,6.00
2018-05-15T01:54:37.155Z,5.70
2018-05-15T01:57:04.410Z,6.03
2018-05-15T01:59:31.762Z,5.87
2018-05-15T02:01:58.947Z,6.10
2018-05-15T02:04:26.195Z,5.37
2018-05-15T02:06:53.470Z,6.10
2018-05-15T02:09:20.754Z,5.87
2018-05-15T02:11:48.007Z,6.13
2018-05-15T02:14:15.283Z,5.13
2018-05-15T02:16:42.582Z,5.17
2018-05-15T02:19:09.847Z,5.07
2018-05-15T02:21:37.099Z,5.50
2018-05-15T02:24:04.387Z,5.13
2018-05-15T02:26:31.653Z,4.90
2018-05-15T02:28:58.939Z,5.27
2018-05-15T02:31:26.183Z,4.80
2018-05-15T02:33:53.555Z,5.00
2018-05-15T02:36:20.835Z,5.50
2018-05-15T02:38:48.113Z,5.70
2018-05-15T02:41:15.380Z,5.30
2018-05-15T02:43:42.643Z,5.07
2018-05-15T02:46:09.919Z,6.37
2018-05-15T02:48:37.285Z,5.40
2018-05-15T02:51:04.534Z,5.57
2018-05-15T02:53:31.807Z,5.30
2018-05-15T02:55:59.059Z,5.30
2018-05-15T02:58:26.327Z,6.17
2018-05-15T03:00:53.663Z,5.70
2018-05-15T03:03:20.935Z,5.67
2018-05-15T03:05:48.197Z,6.10
2018-05-15T03:08:15.515Z,6.27
2018-05-15T03:10:42.779Z,5.23
2018-05-15T03:13:10.032Z,5.00
2018-05-15T03:15:37.319Z,5.33
2018-05-15T03:18:04.581Z,5.70
2018-05-15T03:20:31.842Z,5.47
2018-05-15T03:22:59.143Z,5.10
2018-05-15T03:25:26.407Z,5.90
2018-05-15T03:27:53.659Z,5.77
2018-05-15T03:30:20.935Z,6.67
2018-05-15T03:32:48.207Z,5.67
2018-05-15T03:35:15.483Z,5.90
2018-05-15T03:37:42.761Z,6.50
2018-05-15T03:40:10.039Z,6.23
2018-05-15T03:42:37.333Z,5.53
2018-05-15T03:45:04.591Z,6.47
2018-05-15T03:47:31.847Z,6.13
2018-05-15T03:49:59.110Z,6.57
2018-05-15T03:52:26.395Z,6.50
2018-05-15T03:54:53.645Z,6.50
2018-05-15T03:57:20.919Z,6.30
2018-05-15T03:59:48.198Z,5.87
2018-05-15T04:02:21.322Z,6.93
2018-05-15T04:04:54.336Z,6.93
2018-05-15T04:07:27.454Z,6.57
2018-05-15T04:09:54.728Z,7.37
2018-05-15T04:12:21.978Z,6.87
2018-05-15T04:14:49.256Z,6.57
2018-05-15T04:17:16.576Z,6.77
2018-05-15T04:19:43.883Z,7.00
2018-05-15T04:22:11.168Z,6.47
2018-05-15T04:24:38.420Z,7.17
2018-05-15T04:27:05.695Z,7.93
2018-05-15T04:29:32.957Z,7.90
2018-05-15T04:32:00.222Z,7.60
2018-05-15T04:34:27.499Z,7.30
2018-05-15T04:36:54.776Z,7.57
2018-05-15T04:39:22.031Z,7.73
2018-05-15T04:41:49.309Z,6.67
2018-05-15T04:44:16.587Z,6.87
2018-05-15T04:46:43.876Z,6.70
2018-05-15T04:49:11.222Z,6.73
2018-05-15T04:51:38.398Z,7.17
2018-05-15T04:54:05.670Z,6.50
2018-05-15T04:56:32.996Z,6.37
2018-05-15T04:59:00.253Z,6.40
2018-05-15T05:01:27.535Z,7.13
2018-05-15T05:03:54.786Z,7.40
2018-05-15T05:06:22.104Z,7.57
2018-05-15T05:08:49.351Z,6.10
2018-05-15T05:11:16.624Z,6.80
2018-05-15T05:13:43.871Z,7.73
2018-05-15T05:16:11.392Z,7.40
2018-05-15T05:18:38.642Z,7.10
2018-05-15T05:21:05.934Z,6.60
2018-05-15T05:23:33.183Z,6.60
2018-05-15T05:26:00.446Z,6.93
2018-05-15T05:28:27.729Z,7.30
2018-05-15T05:30:54.979Z,6.77
2018-05-15T05:33:22.311Z,7.10
2018-05-15T05:35:49.511Z,7.20
2018-05-15T05:38:16.785Z,6.67
2018-05-15T05:40:44.075Z,7.43
2018-05-15T05:43:11.359Z,7.00
2018-05-15T05:45:38.732Z,6.60
2018-05-15T05:48:06.002Z,6.97
2018-05-15T05:50:33.263Z,7.97
2018-05-15T05:53:00.550Z,6.63
2018-05-15T05:55:27.806Z,7.30
2018-05-15T05:57:55.064Z,7.97
2018-05-15T06:00:22.334Z,7.17
2018-05-15T06:02:49.612Z,7.40
2018-05-15T06:05:16.870Z,8.50
2018-05-15T06:07:44.146Z,8.00
2018-05-15T06:10:11.411Z,8.20
2018-05-15T06:12:38.694Z,7.50
2018-05-15T06:15:06.019Z,7.57
2018-05-15T06:17:33.276Z,7.70
2018-05-15T06:20:00.522Z,7.57
2018-05-15T06:22:27.801Z,7.03
2018-05-15T06:24:55.073Z,7.30
2018-05-15T06:27:22.393Z,7.20
2018-05-15T06:29:49.599Z,6.50
2018-05-15T06:32:16.967Z,7.00
2018-05-15T06:34:44.180Z,6.03
2018-05-15T06:37:11.432Z,5.93
2018-05-15T06:39:38.717Z,5.67
2018-05-15T06:42:05.968Z,6.33
2018-05-15T06:44:33.253Z,6.90
2018-05-15T06:47:00.508Z,6.30
2018-05-15T06:49:27.775Z,5.73
2018-05-15T06:51:55.058Z,6.50
2018-05-15T06:54:22.376Z,5.80
2018-05-15T06:56:49.727Z,6.70
2018-05-15T06:59:17.085Z,5.80
2018-05-15T07:01:44.386Z,5.73
2018-05-15T07:04:11.698Z,5.90
2018-05-15T07:06:38.956Z,5.60
2018-05-15T07:09:06.246Z,6.83
2018-05-15T07:11:33.497Z,6.93
2018-05-15T07:14:00.843Z,5.90
2018-05-15T07:16:28.062Z,5.70
2018-05-15T07:18:55.311Z,5.53
2018-05-15T07:21:22.607Z,7.30
2018-05-15T07:23:49.853Z,5.50
2018-05-15T07:26:17.120Z,5.37
2018-05-15T07:28:44.370Z,6.63
2018-05-15T07:31:11.660Z,6.40
2018-05-15T07:33:38.912Z,5.77
2018-05-15T07:36:06.286Z,6.13
2018-05-15T07:38:33.553Z,5.97
2018-05-15T07:41:00.940Z,6.30
2018-05-15T07:43:28.254Z,6.03
2018-05-15T07:46:02.270Z,5.73
2018-05-15T07:48:36.249Z,5.63
2018-05-15T07:51:03.599Z,5.70
2018-05-15T07:53:30.903Z,6.17
2018-05-15T07:55:58.133Z,6.10
2018-05-15T07:58:25.395Z,6.83
2018-05-15T08:00:52.676Z,5.70
2018-05-15T08:03:19.964Z,6.27
2018-05-15T08:05:47.236Z,5.87
2018-05-15T08:08:14.511Z,5.80
2018-05-15T08:10:41.783Z,5.77
2018-05-15T08:13:09.037Z,6.30
2018-05-15T08:15:36.310Z,6.53
2018-05-15T08:18:03.583Z,5.87
2018-05-15T08:20:30.852Z,5.90
2018-05-15T08:22:58.235Z,5.70
2018-05-15T08:25:25.492Z,6.50
2018-05-15T08:27:52.750Z,6.00
2018-05-15T08:30:20.107Z,6.40
2018-05-15T08:32:47.391Z,6.07
2018-05-15T08:35:14.665Z,5.77
2018-05-15T08:37:41.964Z,6.37
2018-05-15T08:40:09.195Z,5.50
2018-05-15T08:42:36.452Z,5.60
2018-05-15T08:45:03.748Z,5.60
2018-05-15T08:47:31.006Z,5.93
2018-05-15T08:49:58.341Z,5.63
2018-05-15T08:52:25.608Z,4.90
2018-05-15T08:54:52.863Z,5.70
2018-05-15T08:57:20.205Z,6.13
2018-05-15T08:59:47.484Z,6.47
2018-05-15T09:02:14.732Z,5.77
2018-05-15T09:04:42.003Z,5.20
2018-05-15T09:07:09.262Z,5.70
2018-05-15T09:09:36.535Z,5.03
2018-05-15T09:12:03.820Z,5.87
2018-05-15T09:14:31.180Z,5.23
2018-05-15T09:16:58.432Z,5.70
2018-05-15T09:19:25.688Z,5.50
2018-05-15T09:21:53.041Z,5.13
2018-05-15T09:24:20.283Z,4.83
2018-05-15T09:26:47.746Z,5.13
2018-05-15T09:29:15.033Z,4.77
2018-05-15T09:31:42.275Z,4.40
2018-05-15T09:34:09.555Z,5.20
2018-05-15T09:36:36.864Z,5.00
2018-05-15T09:39:05.036Z,5.10
2018-05-15T09:41:32.286Z,4.73
2018-05-15T09:43:59.570Z,4.90
2018-05-15T09:46:26.904Z,4.00
2018-05-15T09:48:54.150Z,4.80
2018-05-15T09:51:21.520Z,4.47
2018-05-15T09:53:48.769Z,4.20
2018-05-15T09:56:16.048Z,4.77
2018-05-15T09:58:43.304Z,5.20
2018-05-15T10:01:10.583Z,5.43
2018-05-15T10:03:37.852Z,4.73
2018-05-15T10:06:05.233Z,4.83
2018-05-15T10:08:32.591Z,5.20
2018-05-15T10:10:59.854Z,5.60
2018-05-15T10:13:27.132Z,5.10
2018-05-15T10:15:54.379Z,4.57
2018-05-15T10:18:21.659Z,4.90
2018-05-15T10:20:48.915Z,5.07
2018-05-15T10:23:16.217Z,4.90
2018-05-15T10:25:43.467Z,4.40
2018-05-15T10:28:10.756Z,4.90
2018-05-15T10:30:38.047Z,4.67
2018-05-15T10:33:05.284Z,5.17
2018-05-15T10:35:32.592Z,4.93
2018-05-15T10:37:59.871Z,4.53
2018-05-15T10:40:27.128Z,5.20
2018-05-15T10:42:54.446Z,4.87
2018-05-15T10:45:21.800Z,4.90
2018-05-15T10:47:49.079Z,5.20
2018-05-15T10:50:16.354Z,5.20
2018-05-15T10:52:43.614Z,5.10
2018-05-15T10:55:11.052Z,5.50
2018-05-15T10:57:38.299Z,4.33
2018-05-15T11:00:05.641Z,4.53
2018-05-15T11:02:32.888Z,4.77
2018-05-15T11:05:00.240Z,4.83
2018-05-15T11:07:27.492Z,5.37
2018-05-15T11:09:54.768Z,5.17
2018-05-15T11:12:22.044Z,5.03
2018-05-15T11:14:49.301Z,4.50
2018-05-15T11:17:16.578Z,4.93
2018-05-15T11:19:49.627Z,5.23
2018-05-15T11:22:37.770Z,5.00
2018-05-15T11:25:05.090Z,6.00
2018-05-15T11:27:32.342Z,4.93
2018-05-15T11:29:59.699Z,5.67
2018-05-15T11:32:26.974Z,5.30
2018-05-15T11:34:54.243Z,5.13
2018-05-15T11:37:21.573Z,5.43
2018-05-15T11:39:48.839Z,5.57
2018-05-15T11:42:16.105Z,5.93
2018-05-15T11:44:43.373Z,5.43
2018-05-15T11:47:10.631Z,6.43
2018-05-15T11:49:38.624Z,5.43
2018-05-15T11:52:06.074Z,5.20
2018-05-15T11:54:32.422Z,5.47
2018-05-15T11:56:59.697Z,5.20
2018-05-15T11:59:26.963Z,6.10
2018-05-15T12:01:54.309Z,6.03
2018-05-15T12:04:21.579Z,6.03
2018-05-15T12:06:48.914Z,6.10
2018-05-15T12:09:16.275Z,5.70
2018-05-15T12:11:43.521Z,5.90
2018-05-15T12:14:10.787Z,5.87
2018-05-15T12:16:38.139Z,5.30
2018-05-15T12:19:05.405Z,5.90
2018-05-15T12:21:32.661Z,5.73
2018-05-15T12:23:59.935Z,6.00
2018-05-15T12:26:27.253Z,5.53
2018-05-15T12:28:55.049Z,5.00
2018-05-15T12:31:22.398Z,5.40
2018-05-15T12:33:50.583Z,5.70
2018-05-15T12:36:18.251Z,4.90
2018-05-15T12:38:45.666Z,5.07
2018-05-15T12:41:13.190Z,4.70
2018-05-15T12:43:40.721Z,5.03
2018-05-15T12:46:08.958Z,4.60
2018-05-15T12:48:36.500Z,4.30
2018-05-15T12:51:04.025Z,4.07
2018-05-15T12:53:31.511Z,4.80
2018-05-15T12:55:59.109Z,5.07
2018-05-15T12:58:26.743Z,5.03
2018-05-15T13:00:54.399Z,5.33
2018-05-15T13:03:21.833Z,5.07
2018-05-15T13:05:49.338Z,5.00
2018-05-15T13:08:16.587Z,5.27
2018-05-15T13:10:43.858Z,5.30
2018-05-15T13:13:11.447Z,4.63
2018-05-15T13:15:38.798Z,5.07
2018-05-15T13:18:06.284Z,4.97
2018-05-15T13:20:33.888Z,5.10
2018-05-15T13:23:01.208Z,5.10
2018-05-15T13:25:28.941Z,5.10
2018-05-15T13:27:56.558Z,4.83
2018-05-15T13:30:24.203Z,5.50
2018-05-15T13:32:51.524Z,4.97
2018-05-15T13:35:18.863Z,4.27
2018-05-15T13:37:46.265Z,4.87
2018-05-15T13:40:13.526Z,5.23
2018-05-15T13:42:40.774Z,4.77
2018-05-15T13:45:08.047Z,4.87
2018-05-15T13:47:35.294Z,4.67
2018-05-15T13:50:02.564Z,5.00
2018-05-15T13:52:29.821Z,4.63
2018-05-15T13:54:57.090Z,5.23
2018-05-15T13:57:24.342Z,5.03
2018-05-15T13:59:51.612Z,5.60
2018-05-15T14:02:18.870Z,5.00
2018-05-15T14:04:46.134Z,4.33
2018-05-15T14:07:13.390Z,4.30
2018-05-15T14:09:40.663Z,5.70
2018-05-15T14:12:07.929Z,5.47
2018-05-15T14:14:35.200Z,5.17
2018-05-15T14:17:02.456Z,5.00
2018-05-15T14:19:29.720Z,5.20
2018-05-15T14:21:56.971Z,6.67
2018-05-15T14:24:24.253Z,7.20
2018-05-15T14:26:51.509Z,5.77
2018-05-15T14:29:18.787Z,5.43
2018-05-15T14:31:46.045Z,5.57
2018-05-15T14:34:13.308Z,6.00
2018-05-15T14:36:40.571Z,5.40
2018-05-15T14:39:07.842Z,5.60
2018-05-15T14:41:41.061Z,5.77
2018-05-15T14:44:08.333Z,5.10
2018-05-15T14:46:35.596Z,6.17
2018-05-15T14:49:02.868Z,6.07
2018-05-15T14:51:30.124Z,6.10
2018-05-15T14:53:57.388Z,5.50
2018-05-15T14:56:24.651Z,6.10
2018-05-15T14:58:51.918Z,5.90
2018-05-15T15:01:19.188Z,6.23
2018-05-15T15:03:46.447Z,6.00
2018-05-15T15:06:13.715Z,5.50
2018-05-15T15:08:41.076Z,6.17
2018-05-15T15:11:08.239Z,5.80
2018-05-15T15:13:35.500Z,4.40
2018-05-15T15:16:02.782Z,5.37
2018-05-15T15:18:30.036Z,5.90
2018-05-15T15:20:57.311Z,5.00
2018-05-15T15:23:24.565Z,5.10
2018-05-15T15:25:51.827Z,4.57
2018-05-15T15:28:19.084Z,4.43
2018-05-15T15:30:46.352Z,5.03
2018-05-15T15:33:13.611Z,5.60
2018-05-15T15:35:40.880Z,4.50
2018-05-15T15:38:08.139Z,4.80
2018-05-15T15:40:35.411Z,5.20
2018-05-15T15:43:02.664Z,4.87
2018-05-15T15:45:29.936Z,4.20
2018-05-15T15:47:57.184Z,4.40
2018-05-15T15:50:24.553Z,4.87
2018-05-15T15:52:51.712Z,4.40
2018-05-15T15:55:18.986Z,4.53
2018-05-15T15:57:46.309Z,4.60
2018-05-15T16:00:13.504Z,4.97
2018-05-15T16:02:40.765Z,5.17
2018-05-15T16:05:08.039Z,4.60
2018-05-15T16:07:35.289Z,5.20
2018-05-15T16:10:02.632Z,5.07
2018-05-15T16:12:29.820Z,4.70
2018-05-15T16:14:57.088Z,4.90
2018-05-15T16:17:24.350Z,5.50
2018-05-15T16:19:51.623Z,5.40
2018-05-15T16:22:18.880Z,5.07
2018-05-15T16:24:46.152Z,5.90
2018-05-15T16:27:13.413Z,5.03
2018-05-15T16:29:40.680Z,4.93
2018-05-15T16:32:07.930Z,6.13
2018-05-15T16:34:35.315Z,5.80
2018-05-15T16:37:02.571Z,5.00
2018-05-15T16:39:29.823Z,5.20
2018-05-15T16:41:57.166Z,5.37
2018-05-15T16:44:24.419Z,5.40
2018-05-15T16:46:51.694Z,5.90
2018-05-15T16:49:19.134Z,5.70
2018-05-15T16:51:46.700Z,5.70
2018-05-15T16:54:14.053Z,5.70
2018-05-15T16:56:41.340Z,5.53
2018-05-15T16:59:08.639Z,5.37
2018-05-15T17:01:35.907Z,5.40
2018-05-15T17:04:03.157Z,5.80
2018-05-15T17:06:30.440Z,6.50
2018-05-15T17:08:57.699Z,6.10
2018-05-15T17:11:24.962Z,5.60
2018-05-15T17:13:52.216Z,5.70
2018-05-15T17:16:19.490Z,5.20
2018-05-15T17:18:46.751Z,5.20
2018-05-15T17:21:14.012Z,5.63
2018-05-15T17:23:41.271Z,6.80
2018-05-15T17:26:08.552Z,5.50
2018-05-15T17:28:35.900Z,5.60
2018-05-15T17:31:03.340Z,5.30
2018-05-15T17:33:30.614Z,5.93
2018-05-15T17:35:57.975Z,6.30
2018-05-15T17:38:25.227Z,6.03
2018-05-15T17:40:52.543Z,5.97
2018-05-15T17:43:19.752Z,5.80
2018-05-15T17:45:47.091Z,5.27
2018-05-15T17:48:14.354Z,5.60
2018-05-15T17:50:41.630Z,5.90
2018-05-15T17:53:08.899Z,5.50
2018-05-15T17:55:36.214Z,5.70
2018-05-15T17:58:03.459Z,5.47
2018-05-15T18:00:30.726Z,5.57
2018-05-15T18:02:58.076Z,5.13
2018-05-15T18:05:25.343Z,5.50
2018-05-15T18:07:52.602Z,5.43
2018-05-15T18:10:19.880Z,5.17
2018-05-15T18:12:47.131Z,5.83
2018-05-15T18:15:14.507Z,6.23
2018-05-15T18:17:41.663Z,5.60
2018-05-15T18:20:08.925Z,5.10
2018-05-15T18:22:36.195Z,5.80
2018-05-15T18:25:03.455Z,5.77
2018-05-15T18:27:30.823Z,5.30
2018-05-15T18:29:57.980Z,5.40
2018-05-15T18:32:25.256Z,4.47
2018-05-15T18:34:52.511Z,3.80
2018-05-15T18:37:19.777Z,3.60
2018-05-15T18:39:47.039Z,3.50
2018-05-15T18:42:14.327Z,3.07
2018-05-15T18:44:41.804Z,2.80
2018-05-15T18:47:09.079Z,3.50
2018-05-15T18:49:36.403Z,3.20
2018-05-15T18:52:03.671Z,2.97
2018-05-15T18:54:30.931Z,3.03
2018-05-15T18:56:58.194Z,3.10
2018-05-15T18:59:25.456Z,3.17
2018-05-15T19:01:52.720Z,3.20
2018-05-15T19:04:19.986Z,2.87
2018-05-15T19:06:47.295Z,3.17
2018-05-15T19:09:14.500Z,3.40
2018-05-15T19:11:41.775Z,3.50
2018-05-15T19:14:09.031Z,3.47
2018-05-15T19:16:36.314Z,3.50
2018-05-15T19:19:03.576Z,3.43
2018-05-15T19:21:30.836Z,3.50
2018-05-15T19:23:58.146Z,3.40
2018-05-15T19:26:25.422Z,4.03
2018-05-15T19:28:52.667Z,4.30
2018-05-15T19:31:25.792Z,3.50
2018-05-15T19:33:53.035Z,3.53
2018-05-15T19:36:20.304Z,4.13
2018-05-15T19:38:47.562Z,4.27
2018-05-15T19:41:18.973Z,3.70
2018-05-15T19:43:46.223Z,4.03
2018-05-15T19:46:13.493Z,4.40
2018-05-15T19:48:40.747Z,4.37
2018-05-15T19:51:08.028Z,3.90
2018-05-15T19:53:35.275Z,4.20
2018-05-15T19:56:02.544Z,3.77
2018-05-15T19:58:29.792Z,4.50
2018-05-15T20:00:57.068Z,3.80
2018-05-15T20:03:24.317Z,3.90
2018-05-15T20:05:51.586Z,4.13
2018-05-15T20:08:18.853Z,4.30
2018-05-15T20:10:46.124Z,5.10
2018-05-15T20:13:13.403Z,4.87
2018-05-15T20:15:40.687Z,4.50
2018-05-15T20:18:07.943Z,3.77
2018-05-15T20:20:35.216Z,4.83
2018-05-15T20:23:02.471Z,4.93
2018-05-15T20:25:29.758Z,5.17
2018-05-15T20:27:57.082Z,4.53
2018-05-15T20:30:24.362Z,4.37
2018-05-15T20:32:51.619Z,5.30
2018-05-15T20:35:18.896Z,5.00
2018-05-15T20:37:46.157Z,4.40
2018-05-15T20:40:13.415Z,4.13
2018-05-15T20:42:40.704Z,5.10
2018-05-15T20:45:07.955Z,5.03
2018-05-15T20:47:35.283Z,4.97
2018-05-15T20:50:02.539Z,4.43
2018-05-15T20:52:29.820Z,4.47
2018-05-15T20:54:57.128Z,4.80
2018-05-15T20:57:24.339Z,4.60
2018-05-15T20:59:51.617Z,4.80
2018-05-15T21:02:18.891Z,4.73
2018-05-15T21:04:46.167Z,4.07
2018-05-15T21:07:13.440Z,4.73
2018-05-15T21:09:40.698Z,5.13
2018-05-15T21:12:07.977Z,4.80
2018-05-15T21:14:35.223Z,4.70
2018-05-15T21:17:02.491Z,4.30
2018-05-15T21:19:29.774Z,4.70
2018-05-15T21:21:57.034Z,4.60
2018-05-15T21:24:24.305Z,5.00
2018-05-15T21:26:51.556Z,4.43
2018-05-15T21:29:18.826Z,4.87
2018-05-15T21:31:46.184Z,4.57
2018-05-15T21:34:13.455Z,4.63
2018-05-15T21:36:40.812Z,5.13
2018-05-15T21:39:07.999Z,5.10
2018-05-15T21:41:35.279Z,5.60
2018-05-15T21:44:02.564Z,5.43
2018-05-15T21:46:29.826Z,5.80
2018-05-15T21:48:57.080Z,4.97
2018-05-15T21:51:24.347Z,5.27
2018-05-15T21:53:51.660Z,6.27
2018-05-15T21:56:18.949Z,6.03
2018-05-15T21:58:46.274Z,5.93
2018-05-15T22:01:13.551Z,5.50
2018-05-15T22:03:40.963Z,5.73
2018-05-15T22:06:08.160Z,5.20
2018-05-15T22:08:35.495Z,5.40
2018-05-15T22:11:08.499Z,5.73
2018-05-15T22:13:41.679Z,5.40
2018-05-15T22:16:20.835Z,4.90
2018-05-15T22:19:00.159Z,6.00
2018-05-15T22:21:39.340Z,5.07
2018-05-15T22:24:12.672Z,4.90
2018-05-15T22:26:39.935Z,4.67
2018-05-15T22:29:07.286Z,4.50
2018-05-15T22:31:34.539Z,4.90
2018-05-15T22:34:01.823Z,5.10
2018-05-15T22:36:29.076Z,4.87
2018-05-15T22:38:56.330Z,5.07
2018-05-15T22:41:23.854Z,4.90
2018-05-15T22:43:51.127Z,5.43
2018-05-15T22:46:18.454Z,5.07
2018-05-15T22:48:45.715Z,5.70
2018-05-15T22:51:13.075Z,5.57
2018-05-15T22:53:40.424Z,5.10
2018-05-15T22:56:07.694Z,5.83
2018-05-15T22:58:34.944Z,5.77
2018-05-15T23:01:02.219Z,5.97
2018-05-15T23:03:29.502Z,5.47
2018-05-15T23:05:56.832Z,6.20
2018-05-15T23:08:24.102Z,6.00
2018-05-15T23:10:51.367Z,6.10
2018-05-15T23:13:18.610Z,5.80
2018-05-15T23:15:45.989Z,5.50
2018-05-15T23:18:13.162Z,5.90
2018-05-15T23:20:40.439Z,5.47
2018-05-15T23:23:07.713Z,6.30
2018-05-15T23:25:35.009Z,6.03
2018-05-15T23:28:02.263Z,5.27
2018-05-15T23:30:29.511Z,5.70
2018-05-15T23:32:56.784Z,5.17
2018-05-15T23:35:24.058Z,6.10
2018-05-15T23:37:51.325Z,6.17
2018-05-15T23:40:18.572Z,5.80
2018-05-15T23:42:45.845Z,5.77
2018-05-15T23:45:13.091Z,5.70
2018-05-15T23:47:40.371Z,5.90
2018-05-15T23:50:07.660Z,5.87
2018-05-15T23:52:34.936Z,5.80
2018-05-15T23:55:02.186Z,5.80
2018-05-15T23:57:29.526Z,4.90
2018-05-15T23:59:56.805Z,5.60
